createdAt,value
2023-01-17T00:05:26.525Z,3.2
2023-01-17T00:35:33.329Z,3.1
2023-01-17T01:35:45.773Z,2.9
2023-01-17T01:45:47.870Z,2.9
2023-01-17T02:25:56.793Z,2.6
2023-01-17T02:56:03.821Z,1.7
2023-01-17T03:46:14.732Z,0.3
2023-01-17T04:06:18.112Z,0.6
2023-01-17T04:26:23.203Z,0.7
2023-01-17T04:36:25.762Z,0.8
2023-01-17T04:46:28.377Z,0.9
2023-01-17T04:56:30.225Z,0.9
2023-01-17T05:06:32.459Z,1.1
2023-01-17T05:16:34.981Z,1.1
2023-01-17T05:36:38.680Z,1
2023-01-17T05:56:43.268Z,1.1
2023-01-17T06:06:45.490Z,1.1
2023-01-17T06:46:54.382Z,1
2023-01-17T06:56:56.160Z,0.9
2023-01-17T07:06:58.414Z,0.9
2023-01-17T07:17:01.017Z,0.9
2023-01-17T07:37:05.750Z,0.9
2023-01-17T07:57:10.459Z,1
2023-01-17T08:17:14.598Z,1
2023-01-17T08:27:17.252Z,1
2023-01-17T08:37:19.929Z,1
2023-01-17T08:57:24.737Z,1.3
2023-01-17T09:17:29.254Z,1.3
2023-01-17T09:27:31.717Z,1.3
2023-01-17T09:37:33.635Z,1.6
2023-01-17T09:57:38.486Z,1.6
2023-01-17T10:17:42.465Z,2.1
2023-01-17T10:37:46.694Z,2.1
2023-01-17T10:57:50.843Z,2.4
2023-01-17T11:07:53.406Z,2.3
2023-01-17T11:27:57.632Z,2.3
2023-01-17T11:38:00.277Z,2.7
2023-01-17T11:48:02.522Z,2.9
2023-01-17T11:58:04.707Z,3
2023-01-17T11:58:26.647Z,3
2023-01-17T12:08:14.401Z,2.7
2023-01-17T12:18:16.159Z,2.9
2023-01-17T12:28:17.924Z,2.9
2023-01-17T12:38:31.485Z,2.9
2023-01-17T12:48:21.480Z,3.4
2023-01-17T12:58:23.788Z,3.1
2023-01-17T13:08:25.938Z,3
2023-01-17T13:18:27.817Z,3.3
2023-01-17T13:28:30.388Z,3.7
2023-01-17T13:38:32.659Z,3.9
2023-01-17T13:48:34.607Z,3.5
2023-01-17T13:58:37.166Z,3.3
2023-01-17T14:08:39.375Z,3.3
2023-01-17T14:18:41.480Z,3
2023-01-17T14:28:43.625Z,3
2023-01-17T14:38:45.694Z,2.9
2023-01-17T14:48:47.513Z,2.8
2023-01-17T14:58:50.025Z,2.7
2023-01-17T15:08:52.190Z,2.7
2023-01-17T15:18:54.753Z,2.6
2023-01-17T15:28:57.266Z,2.4
2023-01-17T15:38:59.687Z,2.4
2023-01-17T15:49:01.567Z,2.4
2023-01-17T15:59:03.356Z,2.3
2023-01-17T16:09:05.177Z,1.9
2023-01-17T16:19:07.805Z,1.8
2023-01-17T16:29:09.518Z,1.6
2023-01-17T16:39:11.841Z,1.6
2023-01-17T16:49:14.087Z,1.5
2023-01-17T16:59:15.864Z,1.5
2023-01-17T17:09:17.642Z,1.1
2023-01-17T17:19:19.897Z,1.4
2023-01-17T17:29:22.385Z,1.2
2023-01-17T17:39:24.530Z,0.9
2023-01-17T17:49:27.167Z,0.6
2023-01-17T17:59:29.075Z,0.4
2023-01-17T18:09:31.672Z,0.3
2023-01-17T18:19:33.633Z,0
2023-01-17T18:29:36.018Z,-0.2
2023-01-17T18:39:37.906Z,-0.3
2023-01-17T18:49:40.109Z,-0.4
2023-01-17T18:59:42.408Z,-0.5
2023-01-17T19:09:44.173Z,-0.7
2023-01-17T19:19:46.721Z,-0.7
2023-01-17T19:29:48.755Z,-0.7
2023-01-17T19:49:52.691Z,-1
2023-01-17T19:59:54.402Z,-1.3
2023-01-17T20:09:56.626Z,-1.4
2023-01-17T20:19:58.893Z,-1.5
2023-01-17T20:30:11.009Z,-1.5
2023-01-17T20:40:02.681Z,-1.6
2023-01-17T20:50:05.190Z,-1.7
2023-01-17T21:00:07.528Z,-1.8
2023-01-17T21:10:09.342Z,-1.9
2023-01-17T21:20:11.988Z,-2
2023-01-17T21:30:14.475Z,-2.1
2023-01-17T21:40:16.291Z,-2.3
2023-01-17T21:50:32.381Z,-2.3
2023-01-17T22:00:19.995Z,-2.4
2023-01-17T22:10:21.932Z,-2.5
2023-01-17T22:20:23.999Z,-2.4
2023-01-17T22:30:26.547Z,-2.6
2023-01-17T22:40:29.004Z,-2.6
2023-01-17T22:50:30.942Z,-2.6
2023-01-17T23:00:32.683Z,-2.6
2023-01-17T23:10:34.854Z,-2.7
2023-01-17T23:20:36.676Z,-2.7
2023-01-17T23:30:38.376Z,-2.9
2023-01-17T23:40:40.131Z,-3
2023-01-17T23:50:41.977Z,-3.1
